createdAt,value
2022-08-05T00:00:18.676Z,98999.50
2022-08-05T00:02:51.717Z,98997.44
2022-08-05T00:06:01.667Z,98999.44
2022-08-05T00:08:34.148Z,98992.97
2022-08-05T00:11:00.405Z,98994.50
2022-08-05T00:13:38.215Z,98990.84
2022-08-05T00:16:08.958Z,98990.03
2022-08-05T00:18:39.369Z,98993.59
2022-08-05T00:21:08.544Z,98985.09
2022-08-05T00:23:45.956Z,98989.09
2022-08-05T00:26:22.455Z,98982.22
2022-08-05T00:28:52.019Z,98981.00
2022-08-05T00:31:54.474Z,98970.50
2022-08-05T00:34:55.424Z,98970.06
2022-08-05T00:37:11.070Z,98965.63
2022-08-05T00:39:57.436Z,98971.66
2022-08-05T00:42:35.389Z,98962.72
2022-08-05T00:45:08.662Z,98969.16
2022-08-05T00:47:56.285Z,98960.25
2022-08-05T00:50:27.407Z,98953.78
2022-08-05T00:52:56.781Z,98957.38
2022-08-05T00:55:42.383Z,98958.53
2022-08-05T00:58:12.578Z,98958.50
2022-08-05T01:00:42.587Z,98957.28
2022-08-05T01:03:22.331Z,98958.03
2022-08-05T01:05:54.605Z,98955.19
2022-08-05T01:08:41.990Z,98949.13
2022-08-05T01:11:22.659Z,98950.25
2022-08-05T01:14:10.870Z,98945.78
2022-08-05T01:16:52.140Z,98952.19
2022-08-05T01:20:01.964Z,98938.44
2022-08-05T01:22:41.973Z,98940.84
2022-08-05T01:25:53.209Z,98940.75
2022-08-05T01:28:34.188Z,98940.31
2022-08-05T01:31:10.615Z,98938.69
2022-08-05T01:33:48.910Z,98947.56
2022-08-05T01:36:28.290Z,98940.66
2022-08-05T01:39:00.926Z,98930.16
2022-08-05T01:41:35.688Z,98935.75
2022-08-05T01:44:09.660Z,98937.34
2022-08-05T01:46:44.647Z,98937.75
2022-08-05T01:49:23.630Z,98936.84
2022-08-05T01:51:58.656Z,98928.81
2022-08-05T01:54:34.416Z,98930.38
2022-08-05T01:58:10.214Z,98931.13
2022-08-05T02:00:12.740Z,98929.09
2022-08-05T02:02:54.414Z,98929.47
2022-08-05T02:05:29.566Z,98932.66
2022-08-05T02:08:01.003Z,98931.84
2022-08-05T02:10:35.896Z,98930.97
2022-08-05T02:13:15.724Z,98924.91
2022-08-05T02:15:55.090Z,98929.31
2022-08-05T02:18:34.930Z,98929.72
2022-08-05T02:21:15.117Z,98921.63
2022-08-05T02:23:48.602Z,98924.81
2022-08-05T02:26:24.406Z,98922.78
2022-08-05T02:28:58.260Z,98921.16
2022-08-05T02:31:34.553Z,98919.09
2022-08-05T02:34:09.378Z,98923.91
2022-08-05T02:36:43.716Z,98928.31
2022-08-05T02:39:15.143Z,98926.69
2022-08-05T02:42:00.429Z,98923.88
2022-08-05T02:44:32.816Z,98922.63
2022-08-05T02:47:03.784Z,98916.56
2022-08-05T02:49:37.918Z,98910.53
2022-08-05T02:52:29.712Z,98911.69
2022-08-05T02:55:01.865Z,98912.09
2022-08-05T02:58:11.717Z,98910.84
2022-08-05T03:00:23.131Z,98905.59
2022-08-05T03:02:56.312Z,98905.97
2022-08-05T03:06:56.226Z,98910.78
2022-08-05T03:08:14.965Z,98909.53
2022-08-05T03:11:50.067Z,98910.34
2022-08-05T03:13:51.940Z,98910.75
2022-08-05T03:16:23.572Z,98900.66
2022-08-05T03:18:53.929Z,98908.31
2022-08-05T03:21:22.897Z,98905.50
2022-08-05T03:23:59.282Z,98901.06
2022-08-05T03:26:32.153Z,98901.88
2022-08-05T03:29:01.273Z,98895.00
2022-08-05T03:31:57.194Z,98899.41
2022-08-05T03:34:20.532Z,98901.00
2022-08-05T03:36:53.038Z,98899.00
2022-08-05T03:39:27.057Z,98900.19
2022-08-05T03:41:56.796Z,98901.00
2022-08-05T03:44:28.978Z,98903.84
2022-08-05T03:46:57.761Z,98904.63
2022-08-05T03:49:31.059Z,98907.44
2022-08-05T03:52:39.131Z,98910.66
2022-08-05T03:56:04.121Z,98905.44
2022-08-05T03:58:17.501Z,98913.97
2022-08-05T04:00:51.582Z,98911.16
2022-08-05T04:03:26.673Z,98911.59
2022-08-05T04:05:59.604Z,98915.66
2022-08-05T04:08:36.261Z,98909.63
2022-08-05T04:11:08.654Z,98910.88
2022-08-05T04:13:49.661Z,98904.88
2022-08-05T04:16:24.258Z,98908.94
2022-08-05T04:18:55.246Z,98903.34
2022-08-05T04:22:09.508Z,98900.13
2022-08-05T04:24:19.292Z,98903.84
2022-08-05T04:26:51.250Z,98903.84
2022-08-05T04:29:19.897Z,98898.28
2022-08-05T04:31:49.653Z,98890.69
2022-08-05T04:34:32.364Z,98888.72
2022-08-05T04:37:04.180Z,98897.22
2022-08-05T04:39:35.411Z,98892.06
2022-08-05T04:42:04.661Z,98897.38
2022-08-05T04:44:33.124Z,98897.03
2022-08-05T04:47:09.024Z,98895.88
2022-08-05T04:50:02.450Z,98904.41
2022-08-05T04:52:33.444Z,98896.41
2022-08-05T04:55:14.279Z,98898.09
2022-08-05T04:57:47.809Z,98897.34
2022-08-05T05:00:17.826Z,98896.22
2022-08-05T05:02:46.322Z,98895.97
2022-08-05T05:05:26.521Z,98896.50
2022-08-05T05:08:03.610Z,98888.88
2022-08-05T05:10:33.856Z,98894.63
2022-08-05T05:13:04.280Z,98887.41
2022-08-05T05:15:56.797Z,98887.47
2022-08-05T05:18:31.527Z,98890.38
2022-08-05T05:21:03.471Z,98893.25
2022-08-05T05:24:01.894Z,98888.84
2022-08-05T05:26:28.601Z,98884.81
2022-08-05T05:29:02.749Z,98889.75
2022-08-05T05:31:43.424Z,98888.16
2022-08-05T05:34:15.556Z,98889.00
2022-08-05T05:36:44.561Z,98888.22
2022-08-05T05:39:19.026Z,98891.91
2022-08-05T05:41:54.033Z,98885.91
2022-08-05T05:44:36.432Z,98891.19
2022-08-05T05:47:21.591Z,98892.00
2022-08-05T05:49:57.020Z,98884.38
2022-08-05T05:52:34.665Z,98880.38
2022-08-05T05:55:13.731Z,98885.25
2022-08-05T05:57:52.870Z,98888.13
2022-08-05T06:00:31.459Z,98889.38
2022-08-05T06:03:03.407Z,98892.63
2022-08-05T06:05:54.001Z,98892.22
2022-08-05T06:08:32.700Z,98895.91
2022-08-05T06:11:02.951Z,98898.38
2022-08-05T06:13:40.875Z,98903.22
2022-08-05T06:16:30.645Z,98901.22
2022-08-05T06:19:01.978Z,98897.53
2022-08-05T06:21:36.786Z,98897.94
2022-08-05T06:24:11.489Z,98899.13
2022-08-05T06:26:51.016Z,98895.91
2022-08-05T06:29:43.103Z,98907.63
2022-08-05T06:32:26.090Z,98912.06
2022-08-05T06:34:58.764Z,98909.19
2022-08-05T06:37:55.686Z,98910.38
2022-08-05T06:40:20.744Z,98913.59
2022-08-05T06:42:52.831Z,98917.63
2022-08-05T06:45:43.937Z,98916.38
2022-08-05T06:48:53.041Z,98914.72
2022-08-05T06:51:00.227Z,98910.63
2022-08-05T06:53:29.474Z,98910.19
2022-08-05T06:55:58.977Z,98906.09
2022-08-05T06:58:36.134Z,98902.78
2022-08-05T07:01:07.198Z,98903.94
2022-08-05T07:03:35.976Z,98904.28
2022-08-05T07:06:14.481Z,98901.81
2022-08-05T07:08:48.050Z,98901.75
2022-08-05T07:11:25.281Z,98903.72
2022-08-05T07:14:20.630Z,98900.44
2022-08-05T07:18:00.226Z,98910.84
2022-08-05T07:22:39.693Z,98898.41
2022-08-05T07:25:54.103Z,98903.28
2022-08-05T07:28:05.935Z,98899.97
2022-08-05T07:30:40.143Z,98900.69
2022-08-05T07:33:16.497Z,98902.97
2022-08-05T07:36:02.607Z,98894.63
2022-08-05T07:38:43.519Z,98901.75
2022-08-05T07:42:08.806Z,98896.34
2022-08-05T07:44:14.158Z,98897.06
2022-08-05T07:46:50.566Z,98895.31
2022-08-05T07:49:19.877Z,98899.19
2022-08-05T07:51:53.373Z,98895.78
2022-08-05T07:54:30.735Z,98898.41
2022-08-05T07:57:41.996Z,98894.56
2022-08-05T07:59:49.258Z,98897.28
2022-08-05T08:02:19.145Z,98909.75
2022-08-05T08:04:49.517Z,98902.75
2022-08-05T08:07:22.678Z,98906.47
2022-08-05T08:09:54.922Z,98903.59
2022-08-05T08:12:37.490Z,98901.50
2022-08-05T08:15:15.605Z,98907.81
2022-08-05T08:17:53.053Z,98907.69
2022-08-05T08:20:44.267Z,98900.25
2022-08-05T08:24:01.069Z,98904.25
2022-08-05T08:26:02.762Z,98906.16
2022-08-05T08:28:36.567Z,98901.63
2022-08-05T08:31:14.565Z,98900.28
2022-08-05T08:33:51.752Z,98893.97
2022-08-05T08:36:38.539Z,98897.16
2022-08-05T08:39:15.518Z,98903.72
2022-08-05T08:41:51.271Z,98890.69
2022-08-05T08:45:20.238Z,98897.41
2022-08-05T08:48:05.528Z,98891.91
2022-08-05T08:50:33.002Z,98887.13
2022-08-05T08:53:08.015Z,98891.06
2022-08-05T08:56:04.591Z,98886.03
2022-08-05T08:58:37.617Z,98883.31
2022-08-05T09:01:15.863Z,98884.78
2022-08-05T09:03:48.206Z,98887.19
2022-08-05T09:06:27.843Z,98887.63
2022-08-05T09:08:58.822Z,98884.06
2022-08-05T09:11:51.449Z,98891.38
2022-08-05T09:14:58.880Z,98885.59
2022-08-05T09:17:09.673Z,98889.63
2022-08-05T09:20:02.367Z,98888.28
2022-08-05T09:23:19.948Z,98898.09
2022-08-05T09:26:02.374Z,98893.31
2022-08-05T09:28:34.697Z,98897.69
2022-08-05T09:32:08.522Z,98891.53
2022-08-05T09:33:59.232Z,98892.59
2022-08-05T09:36:55.251Z,98890.91
2022-08-05T09:39:39.410Z,98889.19
2022-08-05T09:42:23.670Z,98887.91
2022-08-05T09:45:03.300Z,98883.34
2022-08-05T09:47:55.099Z,98884.88
2022-08-05T09:50:37.545Z,98892.56
2022-08-05T09:53:09.141Z,98879.69
2022-08-05T09:55:58.717Z,98879.69
2022-08-05T09:58:31.759Z,98877.19
2022-08-05T10:01:14.761Z,98879.25
2022-08-05T10:04:00.310Z,98877.28
2022-08-05T10:06:29.461Z,98878.72
2022-08-05T10:09:25.150Z,98875.06
2022-08-05T10:12:18.959Z,98869.69
2022-08-05T10:15:25.640Z,98868.00
2022-08-05T10:18:11.204Z,98872.03
2022-08-05T10:20:47.853Z,98867.00
2022-08-05T10:23:33.925Z,98871.47
2022-08-05T10:26:13.970Z,98875.13
2022-08-05T10:28:46.911Z,98866.56
2022-08-05T10:32:52.338Z,98862.81
2022-08-05T10:34:07.144Z,98859.06
2022-08-05T10:36:38.258Z,98861.03
2022-08-05T10:39:15.240Z,98863.47
2022-08-05T10:42:01.149Z,98860.03
2022-08-05T10:44:33.744Z,98858.34
2022-08-05T10:47:26.114Z,98845.66
2022-08-05T10:50:33.152Z,98850.31
2022-08-05T10:52:58.739Z,98847.28
2022-08-05T10:55:38.591Z,98848.75
2022-08-05T10:58:20.680Z,98845.44
2022-08-05T11:00:55.232Z,98846.97
2022-08-05T11:03:29.433Z,98843.78
2022-08-05T11:06:22.001Z,98837.00
2022-08-05T11:09:32.405Z,98839.88
2022-08-05T11:12:50.401Z,98833.00
2022-08-05T11:15:59.192Z,98833.66
2022-08-05T11:18:32.651Z,98831.69
2022-08-05T11:21:11.762Z,98830.91
2022-08-05T11:24:05.470Z,98837.88
2022-08-05T11:26:43.218Z,98824.25
2022-08-05T11:29:41.623Z,98843.56
2022-08-05T11:32:28.448Z,98829.88
2022-08-05T11:34:58.396Z,98833.19
2022-08-05T11:38:29.525Z,98835.25
2022-08-05T11:41:14.060Z,98833.47
2022-08-05T11:44:04.725Z,98834.88
2022-08-05T11:47:09.252Z,98839.59
2022-08-05T11:49:27.807Z,98841.06
2022-08-05T11:51:57.459Z,98848.28
2022-08-05T11:54:33.989Z,98840.16
2022-08-05T11:57:08.447Z,98845.31
2022-08-05T11:59:54.857Z,98831.59
2022-08-05T12:02:33.092Z,98840.63
2022-08-05T12:05:06.849Z,98827.75
2022-08-05T12:08:07.429Z,98828.88
2022-08-05T12:10:38.396Z,98834.94
2022-08-05T12:13:16.478Z,98827.88
2022-08-05T12:15:49.798Z,98832.03
2022-08-05T12:18:24.362Z,98827.81
2022-08-05T12:20:53.080Z,98824.28
2022-08-05T12:23:21.689Z,98832.53
2022-08-05T12:25:56.851Z,98834.56
2022-08-05T12:28:33.795Z,98827.66
2022-08-05T12:31:02.955Z,98825.44
2022-08-05T12:33:36.280Z,98822.28
2022-08-05T12:36:09.209Z,98823.19
2022-08-05T12:38:41.160Z,98821.81
2022-08-05T12:41:13.499Z,98813.16
2022-08-05T12:43:54.393Z,98825.38
2022-08-05T12:46:29.236Z,98825.28
2022-08-05T12:49:13.187Z,98808.47
2022-08-05T12:52:12.982Z,98818.63
2022-08-05T12:54:37.056Z,98820.31
2022-08-05T12:57:09.180Z,98806.38
2022-08-05T13:01:56.805Z,98824.22
2022-08-05T13:02:40.093Z,98808.22
2022-08-05T13:05:14.366Z,98813.09
2022-08-05T13:08:01.255Z,98802.34
2022-08-05T13:10:33.789Z,98807.59
2022-08-05T13:13:08.952Z,98809.91
2022-08-05T13:15:50.670Z,98815.13
2022-08-05T13:18:20.640Z,98812.91
2022-08-05T13:20:50.713Z,98809.56
2022-08-05T13:23:22.604Z,98801.66
2022-08-05T13:26:00.964Z,98785.63
2022-08-05T13:28:32.339Z,98794.81
2022-08-05T13:31:03.407Z,98794.78
2022-08-05T13:34:22.983Z,98794.28
2022-08-05T13:36:29.317Z,98787.34
2022-08-05T13:38:57.798Z,98783.16
2022-08-05T13:41:37.412Z,98777.56
2022-08-05T13:44:06.396Z,98774.00
2022-08-05T13:46:43.760Z,98779.81
2022-08-05T13:49:23.668Z,98772.78
2022-08-05T13:51:54.100Z,98776.91
2022-08-05T13:54:25.166Z,98762.97
2022-08-05T13:56:54.444Z,98752.56
2022-08-05T13:59:27.240Z,98762.56
2022-08-05T14:01:59.449Z,98761.78
2022-08-05T14:04:51.641Z,98755.03
2022-08-05T14:07:56.906Z,98755.97
2022-08-05T14:10:19.165Z,98744.97
2022-08-05T14:12:57.235Z,98757.06
2022-08-05T14:16:05.347Z,98752.13
2022-08-05T14:18:18.607Z,98731.59
2022-08-05T14:20:54.719Z,98730.25
2022-08-05T14:23:28.099Z,98729.66
2022-08-05T14:26:05.006Z,98733.75
2022-08-05T14:28:34.954Z,98733.97
2022-08-05T14:31:03.963Z,98724.59
2022-08-05T14:33:59.499Z,98734.84
2022-08-05T14:36:29.051Z,98732.53
2022-08-05T14:39:00.073Z,98727.44
2022-08-05T14:41:31.297Z,98730.38
2022-08-05T14:44:09.799Z,98721.91
2022-08-05T14:46:48.283Z,98719.09
2022-08-05T14:49:17.270Z,98724.19
2022-08-05T14:51:45.730Z,98725.72
2022-08-05T14:54:29.791Z,98721.75
2022-08-05T14:57:05.178Z,98731.00
2022-08-05T14:59:38.295Z,98731.25
2022-08-05T15:02:14.944Z,98724.66
2022-08-05T15:04:44.872Z,98728.38
2022-08-05T15:08:12.312Z,98736.44
2022-08-05T15:10:09.777Z,98737.34
2022-08-05T15:12:59.408Z,98737.50
2022-08-05T15:15:55.368Z,98737.88
2022-08-05T15:18:17.250Z,98742.13
2022-08-05T15:20:46.086Z,98733.25
2022-08-05T15:23:15.754Z,98737.38
2022-08-05T15:25:52.126Z,98735.63
2022-08-05T15:28:27.701Z,98726.41
2022-08-05T15:30:57.579Z,98725.06
2022-08-05T15:34:04.314Z,98724.66
2022-08-05T15:36:17.667Z,98722.31
2022-08-05T15:40:40.969Z,98728.19
2022-08-05T15:41:58.440Z,98724.88
2022-08-05T15:44:29.949Z,98719.91
2022-08-05T15:46:59.436Z,98707.72
2022-08-05T15:49:53.743Z,98711.53
2022-08-05T15:52:51.812Z,98712.81
2022-08-05T15:55:06.895Z,98707.56
2022-08-05T15:57:40.050Z,98716.84
2022-08-05T16:00:10.962Z,98713.03
2022-08-05T16:02:40.228Z,98717.88
2022-08-05T16:05:11.224Z,98719.22
2022-08-05T16:07:46.614Z,98732.94
2022-08-05T16:10:25.254Z,98719.50
2022-08-05T16:12:56.002Z,98725.06
2022-08-05T16:15:25.184Z,98715.53
2022-08-05T16:18:04.402Z,98722.81
2022-08-05T16:20:37.713Z,98728.78
2022-08-05T16:23:08.500Z,98735.03
2022-08-05T16:25:37.779Z,98714.47
2022-08-05T16:28:09.727Z,98713.34
2022-08-05T16:30:39.015Z,98724.69
2022-08-05T16:33:09.938Z,98722.81
2022-08-05T16:35:42.237Z,98733.81
2022-08-05T16:38:18.822Z,98724.81
2022-08-05T16:41:00.019Z,98728.28
2022-08-05T16:43:32.661Z,98721.81
2022-08-05T16:46:13.137Z,98723.78
2022-08-05T16:48:51.743Z,98730.25
2022-08-05T16:51:21.558Z,98725.50
2022-08-05T16:54:03.479Z,98724.56
2022-08-05T16:56:41.497Z,98726.19
2022-08-05T16:59:11.879Z,98722.50
2022-08-05T17:01:54.024Z,98727.78
2022-08-05T17:04:26.864Z,98726.53
2022-08-05T17:07:00.207Z,98730.00
2022-08-05T17:09:29.902Z,98722.31
2022-08-05T17:11:59.263Z,98716.25
2022-08-05T17:14:36.661Z,98714.75
2022-08-05T17:17:14.553Z,98709.44
2022-08-05T17:19:46.214Z,98703.34
2022-08-05T17:22:25.079Z,98712.44
2022-08-05T17:24:58.058Z,98712.84
2022-08-05T17:27:33.803Z,98722.22
2022-08-05T17:30:18.751Z,98719.78
2022-08-05T17:32:47.953Z,98714.78
2022-08-05T17:35:21.036Z,98716.81
2022-08-05T17:37:50.608Z,98715.16
2022-08-05T17:40:22.603Z,98718.44
2022-08-05T17:42:53.005Z,98727.78
2022-08-05T17:45:29.521Z,98728.63
2022-08-05T17:48:08.039Z,98733.03
2022-08-05T17:50:36.873Z,98743.16
2022-08-05T17:53:08.672Z,98750.09
2022-08-05T17:55:39.979Z,98745.53
2022-08-05T17:58:12.515Z,98749.56
2022-08-05T18:00:47.089Z,98747.06
2022-08-05T18:03:56.327Z,98751.44
2022-08-05T18:06:12.215Z,98751.00
2022-08-05T18:08:44.593Z,98752.13
2022-08-05T18:11:24.473Z,98761.88
2022-08-05T18:14:03.268Z,98760.63
2022-08-05T18:16:34.117Z,98757.31
2022-08-05T18:19:03.087Z,98757.97
2022-08-05T18:22:08.421Z,98755.00
2022-08-05T18:24:21.000Z,98765.97
2022-08-05T18:26:49.710Z,98765.03
2022-08-05T18:29:18.145Z,98773.94
2022-08-05T18:32:12.609Z,98768.97
2022-08-05T18:34:42.940Z,98767.56
2022-08-05T18:37:12.117Z,98768.66
2022-08-05T18:40:31.033Z,98772.19
2022-08-05T18:42:29.915Z,98777.38
2022-08-05T18:44:58.423Z,98782.94
2022-08-05T18:47:31.118Z,98779.09
2022-08-05T18:50:20.229Z,98780.56
2022-08-05T18:53:15.050Z,98780.47
2022-08-05T18:55:53.031Z,98785.19
2022-08-05T18:58:26.994Z,98783.78
2022-08-05T19:00:58.331Z,98774.69
2022-08-05T19:03:55.513Z,98788.69
2022-08-05T19:06:21.841Z,98789.31
2022-08-05T19:08:50.881Z,98792.28
2022-08-05T19:11:28.037Z,98805.47
2022-08-05T19:14:44.580Z,98800.03
2022-08-05T19:16:55.497Z,98799.38
2022-08-05T19:19:25.586Z,98799.09
2022-08-05T19:21:54.364Z,98795.16
2022-08-05T19:24:34.701Z,98801.81
2022-08-05T19:27:04.465Z,98803.22
2022-08-05T19:29:35.853Z,98808.63
2022-08-05T19:32:11.174Z,98807.19
2022-08-05T19:34:42.050Z,98810.16
2022-08-05T19:37:34.953Z,98805.38
2022-08-05T19:40:15.064Z,98806.78
2022-08-05T19:43:04.674Z,98810.59
2022-08-05T19:45:36.570Z,98807.84
2022-08-05T19:48:07.413Z,98808.34
2022-08-05T19:50:45.130Z,98812.97
2022-08-05T19:53:13.867Z,98814.28
2022-08-05T19:56:13.859Z,98807.03
2022-08-05T19:58:31.849Z,98806.72
2022-08-05T20:01:24.555Z,98809.25
2022-08-05T20:03:57.343Z,98814.66
2022-08-05T20:06:29.125Z,98807.00
2022-08-05T20:09:00.862Z,98814.78
2022-08-05T20:11:42.415Z,98807.19
2022-08-05T20:14:23.530Z,98816.22
2022-08-05T20:16:56.179Z,98804.53
2022-08-05T20:19:25.033Z,98805.81
2022-08-05T20:22:06.278Z,98809.16
2022-08-05T20:24:38.330Z,98807.97
2022-08-05T20:27:11.195Z,98817.44
2022-08-05T20:29:40.293Z,98820.78
2022-08-05T20:32:10.334Z,98813.50
2022-08-05T20:34:41.229Z,98811.94
2022-08-05T20:37:17.721Z,98806.72
2022-08-05T20:39:52.718Z,98810.44
2022-08-05T20:42:26.971Z,98801.50
2022-08-05T20:44:56.755Z,98801.13
2022-08-05T20:47:32.484Z,98801.13
2022-08-05T20:50:02.192Z,98803.97
2022-08-05T20:52:32.523Z,98806.81
2022-08-05T20:55:56.731Z,98804.78
2022-08-05T20:57:49.606Z,98799.53
2022-08-05T21:00:52.182Z,98802.78
2022-08-05T21:03:08.826Z,98797.97
2022-08-05T21:05:53.843Z,98810.22
2022-08-05T21:08:26.772Z,98801.75
2022-08-05T21:11:09.921Z,98796.91
2022-08-05T21:13:48.213Z,98794.53
2022-08-05T21:16:29.949Z,98800.69
2022-08-05T21:19:00.542Z,98798.28
2022-08-05T21:21:44.522Z,98808.09
2022-08-05T21:24:20.581Z,98803.31
2022-08-05T21:26:58.539Z,98809.06
2022-08-05T21:29:31.717Z,98813.59
2022-08-05T21:32:02.392Z,98820.56
2022-08-05T21:34:31.748Z,98826.75
2022-08-05T21:37:01.868Z,98823.13
2022-08-05T21:39:34.451Z,98828.47
2022-08-05T21:42:03.583Z,98821.22
2022-08-05T21:44:32.845Z,98844.41
2022-08-05T21:47:01.731Z,98842.44
2022-08-05T21:50:00.276Z,98846.13
2022-08-05T21:52:26.848Z,98845.75
2022-08-05T21:55:07.063Z,98849.88
2022-08-05T21:57:42.593Z,98849.09
2022-08-05T22:00:13.839Z,98845.94
2022-08-05T22:02:43.274Z,98847.97
2022-08-05T22:05:12.230Z,98850.44
2022-08-05T22:07:58.682Z,98845.59
2022-08-05T22:10:30.009Z,98848.47
2022-08-05T22:14:04.875Z,98844.81
2022-08-05T22:16:01.429Z,98855.81
2022-08-05T22:18:36.361Z,98853.00
2022-08-05T22:21:19.100Z,98860.72
2022-08-05T22:24:09.049Z,98856.25
2022-08-05T22:27:10.945Z,98853.00
2022-08-05T22:29:42.440Z,98862.75
2022-08-05T22:32:11.972Z,98860.31
2022-08-05T22:34:46.089Z,98868.44
2022-08-05T22:37:14.645Z,98869.63
2022-08-05T22:39:43.110Z,98869.19
2022-08-05T22:42:15.488Z,98877.31
2022-08-05T22:44:56.578Z,98882.56
2022-08-05T22:47:29.841Z,98882.56
2022-08-05T22:50:22.776Z,98885.41
2022-08-05T22:52:49.651Z,98887.44
2022-08-05T22:55:21.509Z,98902.88
2022-08-05T22:57:52.346Z,98889.88
2022-08-05T23:00:24.033Z,98901.25
2022-08-05T23:02:55.377Z,98909.78
2022-08-05T23:05:24.954Z,98896.00
2022-08-05T23:07:53.413Z,98902.91
2022-08-05T23:10:23.521Z,98904.53
2022-08-05T23:12:55.910Z,98916.28
2022-08-05T23:15:29.099Z,98922.41
2022-08-05T23:18:03.676Z,98914.28
2022-08-05T23:20:37.553Z,98914.72
2022-08-05T23:23:08.544Z,98920.38
2022-08-05T23:25:51.635Z,98919.56
2022-08-05T23:28:29.041Z,98915.91
2022-08-05T23:31:14.783Z,98913.09
2022-08-05T23:34:05.141Z,98906.63
2022-08-05T23:36:38.671Z,98909.84
2022-08-05T23:39:17.461Z,98901.34
2022-08-05T23:42:02.012Z,98904.19
2022-08-05T23:44:32.441Z,98906.63
2022-08-05T23:47:02.437Z,98906.63
2022-08-05T23:49:39.389Z,98898.53
2022-08-05T23:52:30.520Z,98892.88
2022-08-05T23:55:02.142Z,98885.22
2022-08-05T23:57:34.477Z,98890.94
